createdAt,value
2019-02-15T00:00:46.055Z,36.33
2019-02-15T00:03:36.086Z,43.90
2019-02-15T00:06:26.142Z,51.87
2019-02-15T00:09:16.473Z,42.83
2019-02-15T00:12:06.938Z,45.53
2019-02-15T00:14:57.109Z,46.37
2019-02-15T00:18:09.271Z,43.23
2019-02-15T00:21:04.794Z,44.77
2019-02-15T00:23:54.780Z,44.53
2019-02-15T00:26:45.083Z,41.60
2019-02-15T00:29:35.474Z,41.03
2019-02-15T00:32:26.308Z,41.13
2019-02-15T00:35:17.042Z,43.17
2019-02-15T00:38:07.281Z,48.30
2019-02-15T00:40:57.848Z,46.07
2019-02-15T00:43:47.931Z,47.13
2019-02-15T00:47:03.158Z,41.77
2019-02-15T00:50:00.385Z,48.53
2019-02-15T00:53:03.564Z,54.50
2019-02-15T00:56:21.883Z,42.83
2019-02-15T00:59:32.443Z,45.70
2019-02-15T01:02:33.867Z,55.93
2019-02-15T01:05:51.904Z,51.13
2019-02-15T01:08:54.911Z,47.33
2019-02-15T01:11:54.586Z,59.40
2019-02-15T01:14:44.628Z,43.23
2019-02-15T01:17:34.911Z,40.80
2019-02-15T01:20:25.277Z,39.80
2019-02-15T01:23:15.622Z,44.70
2019-02-15T01:26:23.819Z,42.43
2019-02-15T01:29:32.386Z,41.67
2019-02-15T01:32:44.654Z,39.93
2019-02-15T01:36:09.490Z,38.80
2019-02-15T01:39:30.434Z,40.20
2019-02-15T01:42:41.994Z,46.53
2019-02-15T01:45:38.462Z,37.47
2019-02-15T01:48:28.531Z,46.67
2019-02-15T01:51:18.762Z,47.93
2019-02-15T01:54:08.898Z,41.07
2019-02-15T01:56:59.079Z,43.20
2019-02-15T01:59:49.097Z,40.20
2019-02-15T02:02:39.130Z,41.33
2019-02-15T02:05:29.370Z,37.37
2019-02-15T02:08:23.118Z,32.17
2019-02-15T02:11:13.141Z,37.87
2019-02-15T02:14:03.289Z,38.87
2019-02-15T02:16:53.243Z,39.10
2019-02-15T02:19:43.729Z,40.53
2019-02-15T02:22:34.197Z,50.67
2019-02-15T02:25:24.276Z,51.70
2019-02-15T02:28:14.083Z,49.97
2019-02-15T02:31:04.142Z,47.43
2019-02-15T02:33:54.414Z,44.10
2019-02-15T02:37:09.793Z,40.43
2019-02-15T02:40:00.295Z,41.47
2019-02-15T02:42:50.674Z,43.70
2019-02-15T02:45:40.644Z,43.20
2019-02-15T02:48:30.898Z,44.50
2019-02-15T02:51:21.175Z,46.07
2019-02-15T02:54:11.737Z,45.07
2019-02-15T02:57:01.982Z,39.63
2019-02-15T02:59:52.375Z,44.77
2019-02-15T03:02:42.877Z,39.50
2019-02-15T03:05:32.931Z,44.10
2019-02-15T03:08:23.575Z,40.20
2019-02-15T03:11:13.587Z,45.90
2019-02-15T03:14:11.050Z,38.23
2019-02-15T03:16:55.123Z,37.10
2019-02-15T03:19:45.398Z,39.53
2019-02-15T03:22:35.496Z,42.47
2019-02-15T03:25:25.866Z,44.00
2019-02-15T03:28:16.122Z,40.53
2019-02-15T03:31:07.219Z,34.80
2019-02-15T03:33:57.561Z,46.27
2019-02-15T03:37:06.844Z,46.93
2019-02-15T03:40:01.495Z,37.33
2019-02-15T03:42:51.706Z,43.03
2019-02-15T03:45:42.341Z,43.83
2019-02-15T03:48:32.392Z,42.30
2019-02-15T03:51:22.710Z,40.77
2019-02-15T03:54:12.903Z,33.93
2019-02-15T03:57:03.336Z,40.07
2019-02-15T03:59:53.447Z,43.40
2019-02-15T04:02:43.801Z,41.27
2019-02-15T04:05:33.887Z,39.73
2019-02-15T04:08:24.402Z,43.57
2019-02-15T04:11:14.764Z,44.80
2019-02-15T04:14:04.809Z,39.63
2019-02-15T04:16:55.071Z,34.60
2019-02-15T04:19:45.558Z,40.30
2019-02-15T04:22:35.964Z,37.27
2019-02-15T04:25:26.358Z,37.13
2019-02-15T04:28:16.403Z,35.10
2019-02-15T04:31:06.635Z,41.53
2019-02-15T04:33:56.849Z,38.43
2019-02-15T04:36:47.095Z,43.03
2019-02-15T04:39:37.407Z,37.93
2019-02-15T04:42:27.716Z,40.77
2019-02-15T04:45:17.791Z,38.57
2019-02-15T04:48:08.125Z,40.43
2019-02-15T04:50:58.330Z,48.07
2019-02-15T04:53:48.614Z,34.67
2019-02-15T04:56:38.870Z,38.33
2019-02-15T04:59:29.150Z,33.00
2019-02-15T05:02:19.319Z,38.93
2019-02-15T05:05:09.622Z,41.23
2019-02-15T05:07:59.630Z,43.63
2019-02-15T05:10:49.603Z,39.10
2019-02-15T05:13:40.013Z,35.37
2019-02-15T05:16:30.517Z,36.30
2019-02-15T05:19:20.991Z,37.10
2019-02-15T05:22:10.987Z,35.57
2019-02-15T05:25:01.190Z,35.60
2019-02-15T05:27:51.159Z,36.93
2019-02-15T05:30:41.112Z,32.70
2019-02-15T05:33:31.478Z,33.67
2019-02-15T05:36:22.082Z,31.63
2019-02-15T05:39:12.654Z,32.40
2019-02-15T05:42:02.779Z,42.87
2019-02-15T05:45:03.011Z,36.90
2019-02-15T05:47:44.606Z,27.40
2019-02-15T05:50:34.545Z,38.23
2019-02-15T05:53:24.618Z,32.00
2019-02-15T05:56:14.518Z,31.83
2019-02-15T05:59:04.978Z,34.07
2019-02-15T06:01:55.297Z,38.20
2019-02-15T06:04:45.298Z,32.13
2019-02-15T06:07:35.414Z,40.70
2019-02-15T06:10:26.312Z,33.53
2019-02-15T06:13:16.453Z,33.80
2019-02-15T06:16:06.935Z,36.00
2019-02-15T06:18:57.254Z,41.53
2019-02-15T06:21:47.510Z,31.53
2019-02-15T06:24:37.505Z,31.23
2019-02-15T06:27:27.765Z,32.27
2019-02-15T06:30:17.650Z,39.83
2019-02-15T06:33:08.441Z,35.27
2019-02-15T06:35:59.175Z,38.20
2019-02-15T06:38:49.317Z,30.93
2019-02-15T06:41:39.738Z,37.83
2019-02-15T06:44:31.066Z,39.03
2019-02-15T06:47:21.434Z,38.57
2019-02-15T06:50:11.364Z,41.37
2019-02-15T06:53:01.751Z,46.67
2019-02-15T06:55:52.069Z,32.53
2019-02-15T06:58:57.633Z,35.63
2019-02-15T07:01:52.770Z,35.90
2019-02-15T07:05:01.197Z,34.13
2019-02-15T07:07:51.232Z,35.37
2019-02-15T07:10:41.311Z,41.97
2019-02-15T07:13:31.891Z,34.43
2019-02-15T07:16:21.956Z,26.97
2019-02-15T07:19:12.186Z,38.07
2019-02-15T07:22:02.503Z,34.07
2019-02-15T07:24:52.851Z,41.10
2019-02-15T07:27:43.139Z,37.73
2019-02-15T07:30:33.226Z,27.07
2019-02-15T07:33:23.255Z,37.90
2019-02-15T07:36:13.558Z,33.70
2019-02-15T07:39:05.281Z,34.40
2019-02-15T07:41:55.717Z,40.30
2019-02-15T07:44:46.522Z,32.87
2019-02-15T07:47:36.401Z,36.87
2019-02-15T07:50:26.735Z,23.17
2019-02-15T07:53:17.148Z,28.10
2019-02-15T07:56:07.590Z,29.10
2019-02-15T07:58:58.017Z,29.97
2019-02-15T08:01:48.228Z,29.60
2019-02-15T08:04:38.423Z,31.97
2019-02-15T08:07:28.583Z,26.77
2019-02-15T08:10:18.523Z,32.07
2019-02-15T08:13:08.469Z,24.83
2019-02-15T08:15:58.845Z,29.33
2019-02-15T08:18:49.013Z,26.77
2019-02-15T08:21:40.198Z,26.00
2019-02-15T08:24:30.267Z,24.77
2019-02-15T08:27:20.545Z,29.77
2019-02-15T08:30:11.322Z,23.53
2019-02-15T08:33:01.639Z,28.70
2019-02-15T08:35:52.034Z,26.43
2019-02-15T08:38:42.274Z,20.73
2019-02-15T08:41:32.566Z,32.57
2019-02-15T08:44:22.826Z,31.03
2019-02-15T08:47:13.002Z,26.70
2019-02-15T08:50:03.130Z,51.30
2019-02-15T08:52:55.137Z,135.37
2019-02-15T08:55:45.488Z,28.80
2019-02-15T08:58:36.406Z,18.43
2019-02-15T09:01:26.729Z,22.70
2019-02-15T09:04:17.012Z,19.77
2019-02-15T09:07:07.218Z,17.00
2019-02-15T09:09:57.207Z,23.23
2019-02-15T09:12:47.595Z,16.93
2019-02-15T09:15:37.849Z,16.93
2019-02-15T09:18:27.923Z,14.47
2019-02-15T09:21:18.078Z,17.93
2019-02-15T09:24:08.278Z,24.07
2019-02-15T09:27:00.234Z,15.97
2019-02-15T09:29:50.282Z,18.87
2019-02-15T09:32:40.390Z,16.27
2019-02-15T09:35:30.596Z,19.27
2019-02-15T09:38:20.806Z,18.30
2019-02-15T09:41:11.031Z,17.03
2019-02-15T09:44:01.335Z,19.90
2019-02-15T09:46:51.713Z,21.60
2019-02-15T09:49:42.691Z,18.17
2019-02-15T09:52:33.910Z,16.57
2019-02-15T09:55:24.327Z,23.40
2019-02-15T09:58:16.474Z,22.10
2019-02-15T10:01:06.742Z,21.20
2019-02-15T10:03:56.930Z,17.03
2019-02-15T10:06:47.162Z,21.77
2019-02-15T10:09:37.475Z,18.33
2019-02-15T10:12:27.378Z,26.87
2019-02-15T10:15:17.695Z,25.73
2019-02-15T10:18:07.934Z,21.90
2019-02-15T10:20:57.931Z,20.07
2019-02-15T10:23:48.438Z,22.27
2019-02-15T10:26:38.654Z,21.63
2019-02-15T10:29:28.754Z,20.50
2019-02-15T10:32:18.969Z,20.00
2019-02-15T10:35:09.198Z,33.67
2019-02-15T10:37:59.310Z,21.93
2019-02-15T10:40:49.474Z,20.90
2019-02-15T10:43:40.349Z,22.47
2019-02-15T10:46:37.624Z,21.53
2019-02-15T10:49:22.257Z,17.83
2019-02-15T10:52:12.532Z,19.97
2019-02-15T10:55:03.525Z,26.47
2019-02-15T10:57:53.839Z,19.57
2019-02-15T11:00:44.462Z,21.77
2019-02-15T11:03:36.526Z,22.73
2019-02-15T11:06:26.405Z,24.63
2019-02-15T11:09:16.317Z,24.50
2019-02-15T11:12:06.342Z,19.63
2019-02-15T11:14:57.422Z,23.53
2019-02-15T11:17:48.372Z,25.63
2019-02-15T11:20:38.449Z,20.57
2019-02-15T11:23:28.765Z,22.47
2019-02-15T11:26:24.555Z,21.97
2019-02-15T11:29:10.606Z,28.53
2019-02-15T11:32:00.809Z,23.90
2019-02-15T11:34:51.263Z,21.63
2019-02-15T11:37:41.351Z,19.70
2019-02-15T11:40:31.750Z,19.43
2019-02-15T11:43:21.930Z,21.90
2019-02-15T11:46:12.382Z,22.10
2019-02-15T11:49:02.446Z,18.73
2019-02-15T11:51:52.856Z,22.47
2019-02-15T11:54:43.153Z,21.20
2019-02-15T11:57:33.674Z,22.60
2019-02-15T12:00:28.838Z,27.23
2019-02-15T12:03:19.439Z,21.30
2019-02-15T12:06:09.770Z,23.13
2019-02-15T12:09:00.208Z,20.33
2019-02-15T12:11:50.575Z,23.27
2019-02-15T12:14:40.978Z,20.57
2019-02-15T12:17:31.387Z,19.33
2019-02-15T12:20:22.679Z,24.90
2019-02-15T12:23:12.902Z,20.07
2019-02-15T12:26:03.178Z,22.63
2019-02-15T12:28:53.545Z,19.00
2019-02-15T12:31:43.790Z,19.40
2019-02-15T12:34:33.811Z,20.00
2019-02-15T12:37:23.988Z,17.00
2019-02-15T12:40:14.737Z,23.53
2019-02-15T12:43:05.413Z,23.50
2019-02-15T12:45:59.002Z,19.53
2019-02-15T12:48:49.537Z,24.97
2019-02-15T12:51:39.639Z,19.80
2019-02-15T12:54:29.661Z,18.63
2019-02-15T12:57:20.010Z,23.43
2019-02-15T13:00:12.778Z,17.77
2019-02-15T13:03:02.958Z,16.90
2019-02-15T13:05:53.315Z,19.33
2019-02-15T13:08:43.165Z,20.93
2019-02-15T13:11:33.371Z,20.43
2019-02-15T13:14:23.404Z,23.80
2019-02-15T13:17:14.527Z,18.83
2019-02-15T13:20:05.103Z,14.47
2019-02-15T13:22:56.626Z,14.90
2019-02-15T13:25:47.039Z,15.23
2019-02-15T13:28:37.246Z,17.73
2019-02-15T13:31:27.502Z,18.00
2019-02-15T13:34:18.054Z,15.90
2019-02-15T13:37:08.631Z,14.67
2019-02-15T13:39:59.445Z,14.23
2019-02-15T13:42:49.478Z,16.00
2019-02-15T13:45:39.522Z,14.80
2019-02-15T13:48:29.498Z,20.30
2019-02-15T13:51:19.892Z,18.53
2019-02-15T13:54:10.023Z,17.40
2019-02-15T13:57:00.298Z,18.30
2019-02-15T13:59:50.494Z,24.70
2019-02-15T14:02:42.083Z,20.67
2019-02-15T14:05:32.470Z,15.70
2019-02-15T14:08:22.790Z,19.23
2019-02-15T14:11:13.521Z,21.77
2019-02-15T14:14:03.841Z,18.73
2019-02-15T14:16:53.842Z,19.80
2019-02-15T14:19:44.630Z,21.83
2019-02-15T14:22:35.120Z,21.13
2019-02-15T14:25:25.529Z,23.90
2019-02-15T14:28:16.206Z,23.07
2019-02-15T14:31:06.644Z,19.00
2019-02-15T14:33:56.646Z,16.80
2019-02-15T14:36:46.894Z,26.53
2019-02-15T14:39:37.189Z,19.57
2019-02-15T14:42:27.098Z,16.23
2019-02-15T14:45:17.610Z,20.27
2019-02-15T14:48:08.147Z,15.17
2019-02-15T14:50:58.598Z,16.37
2019-02-15T14:53:48.975Z,16.77
2019-02-15T14:56:39.405Z,16.33
2019-02-15T14:59:29.329Z,15.30
2019-02-15T15:02:20.123Z,19.70
2019-02-15T15:05:10.653Z,15.80
2019-02-15T15:08:00.737Z,14.03
2019-02-15T15:10:50.694Z,15.33
2019-02-15T15:13:40.993Z,16.73
2019-02-15T15:16:31.113Z,14.57
2019-02-15T15:19:21.522Z,16.80
2019-02-15T15:22:12.136Z,16.07
2019-02-15T15:25:02.757Z,18.07
2019-02-15T15:27:52.810Z,14.57
2019-02-15T15:30:42.804Z,16.93
2019-02-15T15:33:33.123Z,16.07
2019-02-15T15:36:23.475Z,18.97
2019-02-15T15:39:13.689Z,24.17
2019-02-15T15:42:03.955Z,12.77
2019-02-15T15:44:53.936Z,13.73
2019-02-15T15:47:44.952Z,15.77
2019-02-15T15:50:35.538Z,17.47
2019-02-15T15:53:26.330Z,15.97
2019-02-15T15:56:16.947Z,14.83
2019-02-15T15:59:07.079Z,15.63
2019-02-15T16:01:57.271Z,14.83
2019-02-15T16:04:48.086Z,15.87
2019-02-15T16:07:38.259Z,15.67
2019-02-15T16:10:28.570Z,16.53
2019-02-15T16:13:18.602Z,16.93
2019-02-15T16:16:08.889Z,14.40
2019-02-15T16:18:59.414Z,17.73
2019-02-15T16:21:50.335Z,13.90
2019-02-15T16:24:40.793Z,18.27
2019-02-15T16:27:31.038Z,21.20
2019-02-15T16:30:21.130Z,23.17
2019-02-15T16:33:11.369Z,20.17
2019-02-15T16:36:01.550Z,22.87
2019-02-15T16:38:51.650Z,37.63
2019-02-15T16:41:41.696Z,36.07
2019-02-15T16:44:32.105Z,30.77
2019-02-15T16:47:22.480Z,38.17
2019-02-15T16:50:13.205Z,44.10
2019-02-15T16:53:03.577Z,40.07
2019-02-15T16:55:54.378Z,32.47
2019-02-15T16:58:45.562Z,32.97
2019-02-15T17:01:35.805Z,27.93
2019-02-15T17:04:25.762Z,20.87
2019-02-15T17:07:15.827Z,22.70
2019-02-15T17:10:06.090Z,32.33
2019-02-15T17:12:56.414Z,19.43
2019-02-15T17:15:46.806Z,16.77
2019-02-15T17:18:37.083Z,15.83
2019-02-15T17:21:27.377Z,16.93
2019-02-15T17:24:17.636Z,16.93
2019-02-15T17:27:07.662Z,16.77
2019-02-15T17:29:58.006Z,18.10
2019-02-15T17:32:48.350Z,18.57
2019-02-15T17:35:38.846Z,17.03
2019-02-15T17:38:28.825Z,15.77
2019-02-15T17:41:19.562Z,18.80
2019-02-15T17:44:09.652Z,17.17
2019-02-15T17:46:59.742Z,26.93
2019-02-15T17:49:50.050Z,47.93
2019-02-15T17:52:40.710Z,39.53
2019-02-15T17:55:30.654Z,32.17
2019-02-15T17:58:20.705Z,47.17
2019-02-15T18:01:10.882Z,26.70
2019-02-15T18:04:01.334Z,36.93
2019-02-15T18:06:51.378Z,30.43
2019-02-15T18:09:41.657Z,23.10
2019-02-15T18:12:31.696Z,26.77
2019-02-15T18:15:21.934Z,95.10
2019-02-15T18:18:12.413Z,87.70
2019-02-15T18:21:02.670Z,50.63
2019-02-15T18:23:53.006Z,29.50
2019-02-15T18:26:43.323Z,20.97
2019-02-15T18:29:33.573Z,23.00
2019-02-15T18:32:23.686Z,25.20
2019-02-15T18:35:14.450Z,24.40
2019-02-15T18:38:04.678Z,30.20
2019-02-15T18:40:54.782Z,31.83
2019-02-15T18:43:44.945Z,36.57
2019-02-15T18:46:35.237Z,25.60
2019-02-15T18:49:26.062Z,24.63
2019-02-15T18:52:16.138Z,26.33
2019-02-15T18:55:07.161Z,20.13
2019-02-15T18:57:57.235Z,22.67
2019-02-15T19:00:47.156Z,19.67
2019-02-15T19:03:37.594Z,23.73
2019-02-15T19:06:27.709Z,26.57
2019-02-15T19:09:18.062Z,39.17
2019-02-15T19:12:08.385Z,38.47
2019-02-15T19:14:58.818Z,40.07
2019-02-15T19:17:49.114Z,40.47
2019-02-15T19:20:40.118Z,41.53
2019-02-15T19:23:30.262Z,38.23
2019-02-15T19:26:20.531Z,39.87
2019-02-15T19:29:10.714Z,34.70
2019-02-15T19:32:00.930Z,41.67
2019-02-15T19:34:51.342Z,49.33
2019-02-15T19:37:41.730Z,62.20
2019-02-15T19:40:32.070Z,51.67
2019-02-15T19:43:22.525Z,55.67
2019-02-15T19:46:12.851Z,41.87
2019-02-15T19:49:03.177Z,44.47
2019-02-15T19:51:53.486Z,50.67
2019-02-15T19:54:43.794Z,42.33
2019-02-15T19:57:34.075Z,46.13
2019-02-15T20:00:24.370Z,47.37
2019-02-15T20:03:14.575Z,49.33
2019-02-15T20:06:04.773Z,44.87
2019-02-15T20:08:54.939Z,35.90
2019-02-15T20:11:45.022Z,31.53
2019-02-15T20:14:35.154Z,28.80
2019-02-15T20:17:25.485Z,28.97
2019-02-15T20:20:16.069Z,29.37
2019-02-15T20:23:06.009Z,37.10
2019-02-15T20:25:56.031Z,30.33
2019-02-15T20:28:46.378Z,27.93
2019-02-15T20:31:36.650Z,35.77
2019-02-15T20:34:26.882Z,46.17
2019-02-15T20:37:17.397Z,44.20
2019-02-15T20:40:09.370Z,52.33
2019-02-15T20:42:59.362Z,55.37
2019-02-15T20:45:49.582Z,69.33
2019-02-15T20:48:39.569Z,47.43
2019-02-15T20:51:30.951Z,42.17
2019-02-15T20:54:21.380Z,32.77
2019-02-15T20:57:11.560Z,37.60
2019-02-15T21:00:01.563Z,33.03
2019-02-15T21:02:51.805Z,32.13
2019-02-15T21:05:42.172Z,32.03
2019-02-15T21:08:32.619Z,36.97
2019-02-15T21:11:22.800Z,33.20
2019-02-15T21:14:13.013Z,33.40
2019-02-15T21:17:03.222Z,36.77
2019-02-15T21:19:53.507Z,31.13
2019-02-15T21:22:43.810Z,30.37
2019-02-15T21:25:33.777Z,32.50
2019-02-15T21:28:23.844Z,31.23
2019-02-15T21:31:13.910Z,34.27
